createdAt,value
2023-05-10T00:00:11.093Z,42.70
2023-05-10T00:01:18.025Z,42.59
2023-05-10T00:02:20.229Z,42.44
2023-05-10T00:03:24.192Z,42.39
2023-05-10T00:04:26.634Z,42.42
2023-05-10T00:05:31.459Z,42.52
2023-05-10T00:06:33.776Z,42.53
2023-05-10T00:07:35.792Z,42.50
2023-05-10T00:08:38.173Z,42.47
2023-05-10T00:09:40.092Z,42.52
2023-05-10T00:10:42.379Z,42.45
2023-05-10T00:11:44.538Z,42.38
2023-05-10T00:12:46.464Z,42.38
2023-05-10T00:13:48.459Z,42.50
2023-05-10T00:14:50.423Z,42.49
2023-05-10T00:15:52.650Z,42.52
2023-05-10T00:16:54.939Z,42.50
2023-05-10T00:17:57.841Z,42.51
2023-05-10T00:18:59.964Z,42.46
2023-05-10T00:20:02.295Z,42.44
2023-05-10T00:21:05.834Z,42.45
2023-05-10T00:22:08.381Z,42.46
2023-05-10T00:23:10.294Z,42.54
2023-05-10T00:24:12.299Z,42.57
2023-05-10T00:25:14.406Z,42.53
2023-05-10T00:26:17.292Z,42.61
2023-05-10T00:27:20.758Z,42.84
2023-05-10T00:28:23.932Z,42.81
2023-05-10T00:29:26.029Z,42.80
2023-05-10T00:30:29.953Z,42.81
2023-05-10T00:31:32.137Z,42.84
2023-05-10T00:32:34.691Z,42.86
2023-05-10T00:33:36.748Z,42.90
2023-05-10T00:34:38.761Z,42.91
2023-05-10T00:35:41.898Z,42.94
2023-05-10T00:36:45.175Z,43.06
2023-05-10T00:37:47.332Z,43.07
2023-05-10T00:38:49.312Z,43.10
2023-05-10T00:39:51.468Z,43.08
2023-05-10T00:40:54.551Z,43.11
2023-05-10T00:41:58.367Z,43.18
2023-05-10T00:43:02.375Z,43.20
2023-05-10T00:44:07.574Z,43.21
2023-05-10T00:45:11.211Z,43.24
2023-05-10T00:46:14.936Z,43.28
2023-05-10T00:47:17.586Z,43.27
2023-05-10T00:48:19.601Z,43.36
2023-05-10T00:49:21.650Z,43.35
2023-05-10T00:50:24.180Z,43.33
2023-05-10T00:51:26.124Z,43.25
2023-05-10T00:52:29.447Z,43.23
2023-05-10T00:53:32.374Z,43.22
2023-05-10T00:54:34.442Z,43.23
2023-05-10T00:55:37.458Z,43.15
2023-05-10T00:56:39.632Z,43.09
2023-05-10T00:57:41.788Z,43.11
2023-05-10T00:58:44.032Z,43.07
2023-05-10T00:59:46.503Z,43.10
2023-05-10T01:00:49.646Z,43.10
2023-05-10T01:01:51.918Z,43.12
2023-05-10T01:02:55.884Z,43.15
2023-05-10T01:03:58.337Z,43.12
2023-05-10T01:05:01.444Z,43.10
2023-05-10T01:06:06.889Z,43.15
2023-05-10T01:07:09.111Z,43.08
2023-05-10T01:08:11.016Z,43.01
2023-05-10T01:09:13.134Z,42.96
2023-05-10T01:10:16.612Z,42.95
2023-05-10T01:11:19.409Z,42.92
2023-05-10T01:12:21.560Z,42.87
2023-05-10T01:13:36.145Z,42.86
2023-05-10T01:14:38.296Z,42.85
2023-05-10T01:15:42.353Z,42.74
2023-05-10T01:16:45.133Z,42.73
2023-05-10T01:17:47.156Z,42.73
2023-05-10T01:18:49.360Z,42.74
2023-05-10T01:19:52.481Z,42.82
2023-05-10T01:21:11.705Z,42.69
2023-05-10T01:22:17.407Z,42.72
2023-05-10T01:24:58.515Z,42.73
2023-05-10T01:26:04.385Z,42.84
2023-05-10T01:27:16.340Z,42.78
2023-05-10T01:28:31.276Z,42.83
2023-05-10T01:30:13.990Z,42.76
2023-05-10T01:31:25.633Z,42.76
2023-05-10T01:33:54.013Z,42.48
2023-05-10T01:35:05.922Z,42.57
2023-05-10T01:36:17.690Z,42.56
2023-05-10T01:38:48.053Z,42.61
2023-05-10T01:39:59.906Z,42.72
2023-05-10T01:42:28.841Z,42.76
2023-05-10T01:43:33.621Z,42.94
2023-05-10T01:44:47.624Z,42.90
2023-05-10T01:46:11.116Z,42.88
2023-05-10T01:47:16.186Z,42.82
2023-05-10T01:48:18.434Z,42.84
2023-05-10T01:50:35.033Z,42.91
2023-05-10T01:51:40.116Z,43.01
2023-05-10T01:52:42.869Z,43.05
2023-05-10T01:53:45.351Z,43.02
2023-05-10T01:56:05.183Z,43.26
2023-05-10T01:57:07.896Z,43.45
2023-05-10T01:58:10.826Z,43.44
2023-05-10T01:59:15.719Z,43.44
2023-05-10T02:00:18.033Z,43.45
2023-05-10T02:01:21.080Z,43.47
2023-05-10T02:02:23.419Z,43.56
2023-05-10T02:03:25.648Z,43.65
2023-05-10T02:04:27.825Z,43.71
2023-05-10T02:05:29.894Z,43.80
2023-05-10T02:06:32.169Z,43.82
2023-05-10T02:07:35.867Z,43.92
2023-05-10T02:08:37.998Z,43.90
2023-05-10T02:09:40.075Z,44.06
2023-05-10T02:10:42.311Z,44.03
2023-05-10T02:11:44.392Z,43.98
2023-05-10T02:12:47.041Z,44.11
2023-05-10T02:13:50.050Z,44.20
2023-05-10T02:14:52.296Z,44.22
2023-05-10T02:15:54.416Z,44.37
2023-05-10T02:16:56.713Z,44.39
2023-05-10T02:17:58.968Z,44.56
2023-05-10T02:19:01.164Z,44.61
2023-05-10T02:20:04.124Z,44.59
2023-05-10T02:21:06.370Z,44.69
2023-05-10T02:22:08.610Z,44.83
2023-05-10T02:23:10.701Z,44.86
2023-05-10T02:24:12.787Z,44.96
2023-05-10T02:25:14.874Z,44.97
2023-05-10T02:26:17.003Z,45.11
2023-05-10T02:27:18.842Z,45.18
2023-05-10T02:28:21.727Z,45.14
2023-05-10T02:30:34.087Z,45.40
2023-05-10T02:31:36.419Z,45.68
2023-05-10T02:32:40.286Z,45.57
2023-05-10T02:33:42.312Z,45.67
2023-05-10T02:34:44.340Z,45.65
2023-05-10T02:35:47.131Z,45.71
2023-05-10T02:36:50.350Z,45.62
2023-05-10T02:37:52.250Z,45.77
2023-05-10T02:38:54.090Z,45.82
2023-05-10T02:39:56.134Z,45.83
2023-05-10T02:41:00.267Z,45.90
2023-05-10T02:42:02.364Z,46.07
2023-05-10T02:43:05.302Z,46.01
2023-05-10T02:44:07.268Z,45.97
2023-05-10T02:46:21.651Z,46.16
2023-05-10T02:47:24.341Z,46.55
2023-05-10T02:48:26.235Z,46.34
2023-05-10T02:49:28.122Z,46.33
2023-05-10T02:50:31.017Z,46.33
2023-05-10T02:51:35.307Z,46.33
2023-05-10T02:52:40.655Z,46.33
2023-05-10T02:53:42.628Z,46.12
2023-05-10T02:54:45.615Z,46.09
2023-05-10T02:55:50.022Z,46.16
2023-05-10T02:58:03.688Z,46.49
2023-05-10T02:59:05.880Z,46.65
2023-05-10T03:00:15.938Z,46.60
2023-05-10T03:01:18.350Z,46.69
2023-05-10T03:02:21.175Z,46.68
2023-05-10T03:03:23.242Z,46.72
2023-05-10T03:04:26.731Z,46.83
2023-05-10T03:05:30.459Z,46.62
2023-05-10T03:06:34.754Z,46.56
2023-05-10T03:07:38.278Z,46.52
2023-05-10T03:08:40.293Z,46.43
2023-05-10T03:09:43.175Z,46.33
2023-05-10T03:10:58.025Z,46.29
2023-05-10T03:12:06.651Z,46.20
2023-05-10T03:13:31.371Z,46.15
2023-05-10T03:14:37.386Z,46.08
2023-05-10T03:16:06.338Z,45.91
2023-05-10T03:17:26.130Z,45.88
2023-05-10T03:18:39.026Z,45.90
2023-05-10T03:19:56.653Z,46.07
2023-05-10T03:21:02.387Z,45.97
2023-05-10T03:22:07.783Z,45.87
2023-05-10T03:23:20.134Z,45.78
2023-05-10T03:24:23.323Z,45.77
2023-05-10T03:25:27.212Z,45.86
2023-05-10T03:26:29.419Z,45.84
2023-05-10T03:27:40.931Z,45.83
2023-05-10T03:28:43.070Z,45.81
2023-05-10T03:29:45.146Z,45.76
2023-05-10T03:30:48.639Z,45.72
2023-05-10T03:31:50.706Z,45.69
2023-05-10T03:32:53.261Z,45.67
2023-05-10T03:33:56.476Z,45.65
2023-05-10T03:35:00.450Z,45.70
2023-05-10T03:36:02.692Z,45.69
2023-05-10T03:37:04.697Z,45.72
2023-05-10T03:38:07.149Z,45.81
2023-05-10T03:39:09.628Z,45.76
2023-05-10T03:40:13.111Z,45.64
2023-05-10T03:41:17.296Z,45.50
2023-05-10T03:42:19.299Z,45.38
2023-05-10T03:43:21.548Z,45.28
2023-05-10T03:44:23.802Z,45.22
2023-05-10T03:45:25.843Z,45.20
2023-05-10T03:46:28.758Z,45.13
2023-05-10T03:47:31.026Z,45.13
2023-05-10T03:48:33.991Z,45.10
2023-05-10T03:49:36.192Z,45.01
2023-05-10T03:50:39.067Z,45.01
2023-05-10T03:51:41.284Z,45.05
2023-05-10T03:52:43.478Z,45.04
2023-05-10T03:53:45.563Z,45.02
2023-05-10T03:54:48.063Z,44.98
2023-05-10T03:55:51.171Z,44.84
2023-05-10T03:56:54.545Z,44.73
2023-05-10T03:57:57.168Z,44.70
2023-05-10T04:03:22.705Z,44.13
2023-05-10T04:08:39.914Z,43.56
2023-05-10T04:09:42.567Z,43.42
2023-05-10T04:10:44.869Z,43.36
2023-05-10T04:11:46.840Z,43.28
2023-05-10T04:12:49.052Z,43.19
2023-05-10T04:13:51.046Z,43.13
2023-05-10T04:14:53.134Z,42.99
2023-05-10T04:15:55.064Z,42.90
2023-05-10T04:16:57.206Z,42.87
2023-05-10T04:17:59.558Z,42.88
2023-05-10T04:19:01.856Z,42.86
2023-05-10T04:20:08.712Z,42.79
2023-05-10T04:21:14.246Z,42.66
2023-05-10T04:22:16.419Z,42.39
2023-05-10T04:23:18.442Z,42.13
2023-05-10T04:24:20.410Z,41.84
2023-05-10T04:25:22.568Z,41.86
2023-05-10T04:26:24.810Z,42.00
2023-05-10T04:27:26.809Z,41.96
2023-05-10T04:28:29.026Z,41.82
2023-05-10T04:29:33.335Z,41.62
2023-05-10T04:30:35.564Z,41.69
2023-05-10T04:31:37.829Z,41.46
2023-05-10T04:32:39.984Z,41.48
2023-05-10T04:33:42.308Z,41.47
2023-05-10T04:34:44.983Z,41.43
2023-05-10T04:35:47.131Z,41.46
2023-05-10T04:36:49.412Z,41.29
2023-05-10T04:37:51.604Z,41.28
2023-05-10T04:38:55.002Z,41.19
2023-05-10T04:39:57.077Z,41.01
2023-05-10T04:41:09.906Z,41.17
2023-05-10T04:42:12.048Z,40.98
2023-05-10T04:43:14.073Z,41.07
2023-05-10T04:44:16.081Z,41.21
2023-05-10T04:45:20.266Z,41.27
2023-05-10T04:46:22.700Z,41.33
2023-05-10T04:47:25.719Z,41.53
2023-05-10T04:48:27.838Z,41.69
2023-05-10T04:49:30.807Z,41.78
2023-05-10T04:50:33.578Z,41.66
2023-05-10T04:51:35.526Z,41.44
2023-05-10T04:52:37.644Z,41.43
2023-05-10T04:53:39.750Z,41.37
2023-05-10T04:54:41.942Z,41.33
2023-05-10T04:55:43.916Z,41.46
2023-05-10T04:56:46.045Z,41.58
2023-05-10T04:57:48.154Z,41.80
2023-05-10T04:58:50.176Z,41.98
2023-05-10T04:59:52.440Z,41.99
2023-05-10T05:00:54.581Z,42.05
2023-05-10T05:01:56.652Z,42.13
2023-05-10T05:03:00.254Z,41.97
2023-05-10T05:04:02.741Z,42.16
2023-05-10T05:05:08.412Z,42.31
2023-05-10T05:06:10.984Z,42.61
2023-05-10T05:07:12.943Z,42.64
2023-05-10T05:08:15.027Z,42.70
2023-05-10T05:09:17.591Z,42.70
2023-05-10T05:10:19.969Z,42.85
2023-05-10T05:11:22.849Z,42.76
2023-05-10T05:12:25.059Z,42.70
2023-05-10T05:13:27.488Z,42.58
2023-05-10T05:14:29.847Z,42.41
2023-05-10T05:15:31.927Z,42.31
2023-05-10T05:16:35.373Z,42.31
2023-05-10T05:17:38.019Z,42.26
2023-05-10T05:18:40.377Z,42.17
2023-05-10T05:19:42.279Z,42.11
2023-05-10T05:20:44.625Z,42.21
2023-05-10T05:21:46.711Z,42.14
2023-05-10T05:22:48.630Z,42.09
2023-05-10T05:23:50.688Z,41.97
2023-05-10T05:24:52.707Z,41.98
2023-05-10T05:25:54.712Z,41.95
2023-05-10T05:26:57.291Z,41.83
2023-05-10T05:27:59.384Z,41.69
2023-05-10T05:29:01.352Z,41.53
2023-05-10T05:30:10.391Z,41.37
2023-05-10T05:31:14.595Z,41.17
2023-05-10T05:32:17.249Z,41.13
2023-05-10T05:33:19.469Z,41.22
2023-05-10T05:34:21.524Z,40.84
2023-05-10T05:35:26.524Z,40.81
2023-05-10T05:36:28.816Z,40.87
2023-05-10T05:37:30.789Z,40.56
2023-05-10T05:38:32.728Z,40.55
2023-05-10T05:39:36.660Z,40.54
2023-05-10T05:40:40.744Z,40.53
2023-05-10T05:41:42.945Z,40.96
2023-05-10T05:42:45.136Z,40.91
2023-05-10T05:43:47.239Z,41.04
2023-05-10T05:44:49.463Z,41.14
2023-05-10T05:45:53.196Z,41.27
2023-05-10T05:46:55.948Z,41.56
2023-05-10T05:47:58.133Z,41.35
2023-05-10T05:49:00.276Z,41.18
2023-05-10T05:50:03.069Z,40.92
2023-05-10T05:51:07.190Z,41.01
2023-05-10T05:52:09.811Z,40.93
2023-05-10T05:53:12.141Z,40.73
2023-05-10T05:54:14.045Z,40.78
2023-05-10T05:55:16.346Z,40.81
2023-05-10T05:56:19.015Z,40.78
2023-05-10T05:57:21.102Z,40.54
2023-05-10T05:58:23.183Z,40.41
2023-05-10T05:59:25.662Z,40.12
2023-05-10T06:00:28.287Z,39.92
2023-05-10T06:01:30.700Z,39.82
2023-05-10T06:02:33.057Z,39.93
2023-05-10T06:03:37.029Z,39.86
2023-05-10T06:04:42.802Z,40.02
2023-05-10T06:05:44.620Z,39.93
2023-05-10T06:06:47.812Z,39.92
2023-05-10T06:07:51.053Z,40.09
2023-05-10T06:08:55.602Z,40.25
2023-05-10T06:09:59.928Z,40.27
2023-05-10T06:11:01.918Z,40.46
2023-05-10T06:12:04.045Z,40.46
2023-05-10T06:13:06.372Z,40.48
2023-05-10T06:14:09.227Z,40.49
2023-05-10T06:15:16.568Z,40.29
2023-05-10T06:16:18.919Z,40.23
2023-05-10T06:17:21.276Z,40.15
2023-05-10T06:18:23.816Z,40.17
2023-05-10T06:19:25.835Z,40.07
2023-05-10T06:20:28.393Z,39.53
2023-05-10T06:21:31.048Z,39.72
2023-05-10T06:22:33.076Z,39.91
2023-05-10T06:23:35.049Z,39.85
2023-05-10T06:24:37.162Z,39.74
2023-05-10T06:25:39.413Z,39.75
2023-05-10T06:26:42.114Z,39.86
2023-05-10T06:27:48.903Z,40.06
2023-05-10T06:28:49.786Z,40.00
2023-05-10T06:29:56.501Z,39.90
2023-05-10T06:30:56.738Z,40.05
2023-05-10T06:31:58.934Z,39.97
2023-05-10T06:33:00.904Z,40.00
2023-05-10T06:34:05.220Z,40.02
2023-05-10T06:35:09.456Z,40.12
2023-05-10T06:36:12.578Z,40.28
2023-05-10T06:37:14.704Z,40.28
2023-05-10T06:38:16.605Z,40.39
2023-05-10T06:39:18.991Z,40.60
2023-05-10T06:40:21.142Z,40.36
2023-05-10T06:41:24.685Z,40.57
2023-05-10T06:42:27.235Z,40.42
2023-05-10T06:43:29.360Z,40.19
2023-05-10T06:44:32.413Z,40.15
2023-05-10T06:45:34.642Z,40.14
2023-05-10T06:46:37.156Z,40.06
2023-05-10T06:47:39.669Z,39.97
2023-05-10T06:48:42.318Z,39.79
2023-05-10T06:49:44.642Z,39.64
2023-05-10T06:50:47.249Z,39.46
2023-05-10T06:51:49.497Z,39.19
2023-05-10T06:52:53.066Z,38.39
2023-05-10T06:53:55.596Z,38.44
2023-05-10T06:54:57.763Z,38.32
2023-05-10T06:55:59.770Z,38.17
2023-05-10T06:57:03.130Z,38.35
2023-05-10T06:58:05.659Z,38.01
2023-05-10T06:59:07.931Z,37.92
2023-05-10T07:00:14.562Z,37.69
2023-05-10T07:01:17.252Z,37.91
2023-05-10T07:02:19.905Z,37.40
2023-05-10T07:03:22.330Z,36.64
2023-05-10T07:04:26.446Z,36.16
2023-05-10T07:05:30.585Z,36.51
2023-05-10T07:06:33.968Z,36.63
2023-05-10T07:07:36.462Z,36.40
2023-05-10T07:08:38.846Z,36.32
2023-05-10T07:09:41.219Z,36.25
2023-05-10T07:10:43.928Z,36.58
2023-05-10T07:11:46.051Z,35.66
2023-05-10T07:12:48.300Z,35.46
2023-05-10T07:13:53.806Z,34.56
2023-05-10T07:14:56.023Z,35.37
2023-05-10T07:15:59.207Z,35.25
2023-05-10T07:17:01.995Z,35.47
2023-05-10T07:18:04.352Z,35.48
2023-05-10T07:19:07.134Z,35.61
2023-05-10T07:20:13.131Z,35.78
2023-05-10T07:21:15.429Z,35.70
2023-05-10T07:22:18.051Z,35.70
2023-05-10T07:23:20.414Z,35.69
2023-05-10T07:24:22.727Z,35.64
2023-05-10T07:25:24.854Z,36.30
2023-05-10T07:26:27.485Z,35.55
2023-05-10T07:27:29.681Z,34.76
2023-05-10T07:28:31.696Z,34.56
2023-05-10T07:29:33.790Z,34.28
2023-05-10T07:30:36.251Z,34.54
2023-05-10T07:31:39.289Z,34.12
2023-05-10T07:32:41.645Z,33.59
2023-05-10T07:33:43.901Z,33.76
2023-05-10T07:34:46.496Z,34.20
2023-05-10T07:35:48.595Z,34.11
2023-05-10T07:36:50.987Z,33.53
2023-05-10T07:37:53.137Z,33.66
2023-05-10T07:38:55.164Z,33.76
2023-05-10T07:39:57.538Z,33.47
2023-05-10T07:41:00.195Z,33.21
2023-05-10T07:42:02.447Z,32.70
2023-05-10T07:43:04.674Z,33.22
2023-05-10T07:44:07.339Z,32.57
2023-05-10T07:45:12.594Z,32.67
2023-05-10T07:46:15.119Z,32.59
2023-05-10T07:47:17.372Z,32.72
2023-05-10T07:48:19.275Z,33.16
2023-05-10T07:49:21.352Z,32.77
2023-05-10T07:50:24.651Z,32.18
2023-05-10T07:51:26.707Z,32.77
2023-05-10T07:52:28.906Z,32.46
2023-05-10T07:53:30.963Z,32.49
2023-05-10T07:54:33.276Z,32.69
2023-05-10T07:55:35.320Z,32.81
2023-05-10T07:56:37.612Z,32.50
2023-05-10T07:57:39.783Z,32.42
2023-05-10T07:58:42.526Z,32.53
2023-05-10T07:59:44.761Z,32.62
2023-05-10T08:00:47.106Z,32.24
2023-05-10T08:01:49.257Z,31.80
2023-05-10T08:02:51.482Z,31.66
2023-05-10T08:03:55.537Z,31.90
2023-05-10T08:04:58.142Z,32.15
2023-05-10T08:06:00.469Z,31.91
2023-05-10T08:07:02.445Z,32.24
2023-05-10T08:08:04.832Z,31.87
2023-05-10T08:09:06.957Z,31.30
2023-05-10T08:10:10.356Z,30.78
2023-05-10T08:11:12.373Z,30.93
2023-05-10T08:12:14.625Z,31.01
2023-05-10T08:13:16.865Z,30.30
2023-05-10T08:14:19.127Z,30.36
2023-05-10T08:15:21.275Z,30.13
2023-05-10T08:16:23.828Z,30.30
2023-05-10T08:17:26.430Z,30.57
2023-05-10T08:18:28.817Z,30.04
2023-05-10T08:19:31.114Z,30.23
2023-05-10T08:20:34.061Z,29.95
2023-05-10T08:21:36.270Z,30.03
2023-05-10T08:22:38.318Z,30.23
2023-05-10T08:23:40.690Z,29.96
2023-05-10T08:24:42.989Z,29.82
2023-05-10T08:25:45.523Z,30.20
2023-05-10T08:26:47.963Z,29.70
2023-05-10T08:27:50.264Z,29.41
2023-05-10T08:28:54.132Z,29.50
2023-05-10T08:29:56.190Z,29.14
2023-05-10T08:30:59.210Z,29.06
2023-05-10T08:32:02.019Z,28.66
2023-05-10T08:33:04.315Z,29.57
2023-05-10T08:34:07.048Z,29.93
2023-05-10T08:35:09.460Z,29.75
2023-05-10T08:36:14.653Z,29.89
2023-05-10T08:37:16.763Z,30.29
2023-05-10T08:38:18.797Z,30.14
2023-05-10T08:39:29.677Z,30.07
2023-05-10T08:40:25.431Z,30.29
2023-05-10T08:41:27.547Z,30.07
2023-05-10T08:42:30.752Z,30.33
2023-05-10T08:43:32.927Z,30.43
2023-05-10T08:44:35.867Z,30.53
2023-05-10T08:45:40.425Z,30.85
2023-05-10T08:46:42.530Z,30.70
2023-05-10T08:47:45.126Z,30.75
2023-05-10T08:48:51.352Z,30.55
2023-05-10T08:49:53.758Z,30.67
2023-05-10T08:50:56.326Z,30.46
2023-05-10T08:51:58.399Z,30.70
2023-05-10T08:53:01.369Z,30.63
2023-05-10T08:54:04.868Z,30.41
2023-05-10T08:55:10.403Z,30.51
2023-05-10T08:56:12.889Z,30.21
2023-05-10T08:57:15.358Z,30.12
2023-05-10T08:58:17.627Z,30.31
2023-05-10T08:59:19.883Z,30.26
2023-05-10T09:00:23.367Z,30.25
2023-05-10T09:01:25.620Z,30.66
2023-05-10T09:02:28.429Z,30.48
2023-05-10T09:03:31.513Z,30.15
2023-05-10T09:04:33.775Z,30.06
2023-05-10T09:05:36.861Z,30.21
2023-05-10T09:06:39.161Z,30.23
2023-05-10T09:07:41.216Z,30.23
2023-05-10T09:08:43.524Z,30.22
2023-05-10T09:09:46.362Z,30.29
2023-05-10T09:10:49.099Z,30.54
2023-05-10T09:11:52.805Z,30.37
2023-05-10T09:12:59.347Z,30.15
2023-05-10T09:14:01.702Z,29.67
2023-05-10T09:15:06.221Z,29.95
2023-05-10T09:16:20.416Z,30.05
2023-05-10T09:17:12.622Z,30.21
2023-05-10T09:18:14.799Z,29.73
2023-05-10T09:19:18.684Z,29.51
2023-05-10T09:20:20.829Z,29.63
2023-05-10T09:21:22.960Z,29.48
2023-05-10T09:22:25.478Z,29.59
2023-05-10T09:23:27.508Z,29.60
2023-05-10T09:24:30.620Z,29.68
2023-05-10T09:25:33.035Z,29.68
2023-05-10T09:26:36.294Z,29.57
2023-05-10T09:28:53.984Z,30.00
2023-05-10T09:29:56.390Z,29.94
2023-05-10T09:30:59.571Z,29.99
2023-05-10T09:32:01.901Z,29.93
2023-05-10T09:33:04.186Z,29.75
2023-05-10T09:34:06.170Z,29.81
2023-05-10T09:35:22.748Z,29.54
2023-05-10T09:36:24.978Z,29.57
2023-05-10T09:37:30.307Z,29.58
2023-05-10T09:38:36.053Z,29.38
2023-05-10T09:39:38.211Z,29.54
2023-05-10T09:40:40.614Z,29.49
2023-05-10T09:41:42.676Z,29.71
2023-05-10T09:43:03.037Z,29.67
2023-05-10T09:44:05.390Z,29.77
2023-05-10T09:45:09.699Z,29.72
2023-05-10T09:46:12.967Z,29.89
2023-05-10T09:47:18.858Z,29.81
2023-05-10T09:48:23.984Z,29.62
2023-05-10T09:49:26.684Z,29.79
2023-05-10T09:50:30.507Z,30.01
2023-05-10T09:51:36.653Z,30.06
2023-05-10T09:52:56.807Z,29.92
2023-05-10T09:54:16.184Z,29.90
2023-05-10T09:55:21.645Z,29.93
2023-05-10T09:56:33.772Z,29.82
2023-05-10T09:57:35.913Z,29.95
2023-05-10T09:58:37.986Z,30.04
2023-05-10T09:59:42.994Z,29.76
2023-05-10T10:00:46.870Z,29.96
2023-05-10T10:01:52.260Z,29.70
2023-05-10T10:02:55.899Z,29.09
2023-05-10T10:03:59.956Z,29.37
2023-05-10T10:05:02.233Z,29.49
2023-05-10T10:06:15.866Z,29.20
2023-05-10T10:07:11.654Z,29.15
2023-05-10T10:08:14.012Z,28.83
2023-05-10T10:09:16.382Z,29.27
2023-05-10T10:10:19.970Z,29.44
2023-05-10T10:11:22.358Z,29.21
2023-05-10T10:12:24.627Z,28.93
2023-05-10T10:13:26.909Z,28.94
2023-05-10T10:14:29.755Z,28.97
2023-05-10T10:15:31.883Z,29.07
2023-05-10T10:16:34.297Z,28.95
2023-05-10T10:17:36.985Z,28.76
2023-05-10T10:18:39.414Z,28.89
2023-05-10T10:19:41.920Z,29.00
2023-05-10T10:20:44.641Z,29.00
2023-05-10T10:21:48.003Z,28.87
2023-05-10T10:22:50.280Z,28.71
2023-05-10T10:23:52.670Z,28.74
2023-05-10T10:24:55.021Z,28.57
2023-05-10T10:25:57.244Z,28.58
2023-05-10T10:28:20.953Z,28.88
2023-05-10T10:29:41.357Z,29.07
2023-05-10T10:30:47.803Z,29.27
2023-05-10T10:32:12.057Z,29.43
2023-05-10T10:33:30.046Z,29.22
2023-05-10T10:34:32.966Z,29.35
2023-05-10T10:35:35.206Z,29.88
2023-05-10T10:36:47.932Z,29.69
2023-05-10T10:37:51.285Z,29.87
2023-05-10T10:39:00.700Z,30.06
2023-05-10T10:40:23.636Z,29.90
2023-05-10T10:41:37.324Z,29.97
2023-05-10T10:42:45.208Z,30.31
2023-05-10T10:43:48.325Z,30.36
2023-05-10T10:44:50.667Z,30.29
2023-05-10T10:46:11.947Z,30.44
2023-05-10T10:47:20.756Z,30.52
2023-05-10T10:48:24.013Z,30.55
2023-05-10T10:49:26.225Z,30.62
2023-05-10T10:50:29.608Z,30.45
2023-05-10T10:51:31.727Z,30.52
2023-05-10T10:52:35.472Z,30.65
2023-05-10T10:53:38.566Z,30.69
2023-05-10T10:54:40.852Z,30.54
2023-05-10T10:55:49.283Z,30.40
2023-05-10T10:57:13.931Z,30.25
2023-05-10T10:58:31.546Z,30.50
2023-05-10T11:04:02.482Z,30.14
2023-05-10T11:05:31.735Z,29.91
2023-05-10T11:06:35.878Z,29.97
2023-05-10T11:08:51.884Z,29.82
2023-05-10T11:09:54.064Z,29.81
2023-05-10T11:11:02.899Z,29.76
2023-05-10T11:12:08.484Z,29.76
2023-05-10T11:13:12.557Z,29.60
2023-05-10T11:14:14.618Z,29.65
2023-05-10T11:15:17.122Z,29.73
2023-05-10T11:16:22.619Z,29.55
2023-05-10T11:18:36.838Z,29.46
2023-05-10T11:19:39.096Z,29.43
2023-05-10T11:20:41.430Z,29.34
2023-05-10T11:21:52.411Z,29.50
2023-05-10T11:22:54.565Z,29.29
2023-05-10T11:23:57.549Z,29.22
2023-05-10T11:25:00.304Z,28.98
2023-05-10T11:26:02.431Z,28.74
2023-05-10T11:27:04.459Z,28.66
2023-05-10T11:28:06.594Z,28.72
2023-05-10T11:29:08.773Z,28.56
2023-05-10T11:30:14.694Z,28.29
2023-05-10T11:31:19.070Z,28.45
2023-05-10T11:32:21.632Z,28.61
2023-05-10T11:33:23.941Z,28.44
2023-05-10T11:34:28.564Z,28.21
2023-05-10T11:35:30.893Z,28.12
2023-05-10T11:36:35.777Z,28.13
2023-05-10T11:37:41.888Z,28.03
2023-05-10T11:38:44.093Z,27.87
2023-05-10T11:39:46.695Z,27.59
2023-05-10T11:40:51.454Z,27.40
2023-05-10T11:41:53.617Z,27.25
2023-05-10T11:42:57.028Z,27.13
2023-05-10T11:43:59.279Z,26.86
2023-05-10T11:45:01.864Z,26.89
2023-05-10T11:46:05.829Z,26.98
2023-05-10T11:47:08.179Z,26.99
2023-05-10T11:48:10.376Z,26.71
2023-05-10T11:49:12.977Z,26.68
2023-05-10T11:50:16.164Z,26.69
2023-05-10T11:51:24.629Z,26.78
2023-05-10T11:52:26.752Z,26.59
2023-05-10T11:53:31.333Z,26.50
2023-05-10T11:54:33.454Z,26.67
2023-05-10T11:55:35.489Z,26.58
2023-05-10T11:56:40.015Z,26.58
2023-05-10T11:57:42.733Z,27.00
2023-05-10T11:58:45.339Z,26.88
2023-05-10T11:59:48.310Z,26.33
2023-05-10T12:00:50.873Z,26.36
2023-05-10T12:01:53.249Z,25.97
2023-05-10T12:02:55.817Z,25.56
2023-05-10T12:03:58.838Z,25.91
2023-05-10T12:05:01.380Z,25.72
2023-05-10T12:06:06.042Z,25.71
2023-05-10T12:07:12.378Z,25.78
2023-05-10T12:08:15.376Z,25.71
2023-05-10T12:09:20.982Z,25.69
2023-05-10T12:10:26.779Z,25.71
2023-05-10T12:11:29.437Z,25.50
2023-05-10T12:14:12.875Z,24.98
2023-05-10T12:15:23.375Z,25.04
2023-05-10T12:16:31.410Z,25.08
2023-05-10T12:17:33.606Z,25.27
2023-05-10T12:18:36.182Z,25.19
2023-05-10T12:19:38.950Z,25.13
2023-05-10T12:20:41.343Z,25.25
2023-05-10T12:21:43.285Z,25.14
2023-05-10T12:22:58.332Z,25.21
2023-05-10T12:24:02.675Z,25.40
2023-05-10T12:25:08.603Z,25.40
2023-05-10T12:26:10.986Z,25.71
2023-05-10T12:28:22.689Z,25.40
2023-05-10T12:29:25.036Z,25.69
2023-05-10T12:30:31.540Z,25.55
2023-05-10T12:31:33.905Z,25.66
2023-05-10T12:32:44.079Z,25.84
2023-05-10T12:33:46.211Z,26.25
2023-05-10T12:34:48.511Z,26.46
2023-05-10T12:35:52.315Z,26.56
2023-05-10T12:36:54.502Z,26.48
2023-05-10T12:37:56.586Z,26.51
2023-05-10T12:39:03.815Z,26.64
2023-05-10T12:40:09.967Z,26.71
2023-05-10T12:41:14.725Z,26.79
2023-05-10T12:42:17.022Z,26.84
2023-05-10T12:43:22.051Z,26.98
2023-05-10T12:44:24.310Z,26.91
2023-05-10T12:45:26.609Z,26.84
2023-05-10T12:46:31.581Z,26.90
2023-05-10T12:47:34.891Z,27.19
2023-05-10T12:48:37.808Z,27.25
2023-05-10T12:49:40.032Z,27.15
2023-05-10T12:50:43.350Z,27.04
2023-05-10T12:51:45.254Z,27.02
2023-05-10T12:52:47.394Z,27.14
2023-05-10T12:53:49.798Z,26.87
2023-05-10T12:54:54.171Z,27.13
2023-05-10T12:55:56.501Z,26.86
2023-05-10T12:56:58.926Z,26.75
2023-05-10T12:58:01.009Z,26.64
2023-05-10T12:59:03.212Z,26.75
2023-05-10T13:00:08.344Z,26.77
2023-05-10T13:01:12.711Z,27.04
2023-05-10T13:02:15.928Z,27.32
2023-05-10T13:03:21.801Z,27.67
2023-05-10T13:04:24.001Z,27.55
2023-05-10T13:05:26.326Z,27.80
2023-05-10T13:06:30.250Z,28.06
2023-05-10T13:07:32.949Z,27.78
2023-05-10T13:08:35.317Z,28.03
2023-05-10T13:09:37.670Z,27.70
2023-05-10T13:10:40.203Z,28.22
2023-05-10T13:11:42.658Z,28.22
2023-05-10T13:12:46.949Z,28.17
2023-05-10T13:13:49.112Z,27.78
2023-05-10T13:14:51.232Z,27.48
2023-05-10T13:17:05.240Z,27.61
2023-05-10T13:18:11.525Z,27.13
2023-05-10T13:19:19.419Z,27.14
2023-05-10T13:20:22.090Z,26.79
2023-05-10T13:21:24.541Z,26.94
2023-05-10T13:22:39.230Z,27.17
2023-05-10T13:23:34.756Z,27.52
2023-05-10T13:25:52.926Z,27.06
2023-05-10T13:26:57.161Z,27.66
2023-05-10T13:28:01.601Z,27.03
2023-05-10T13:29:04.210Z,27.39
2023-05-10T13:30:10.812Z,27.25
2023-05-10T13:31:16.344Z,27.06
2023-05-10T13:32:20.652Z,26.94
2023-05-10T13:33:22.899Z,27.06
2023-05-10T13:34:27.098Z,27.15
2023-05-10T13:35:29.476Z,26.78
2023-05-10T13:36:32.287Z,27.12
2023-05-10T13:37:42.692Z,26.87
2023-05-10T13:38:45.104Z,26.93
2023-05-10T13:39:47.309Z,26.86
2023-05-10T13:40:53.844Z,26.87
2023-05-10T13:42:02.483Z,26.59
2023-05-10T13:43:04.987Z,26.58
2023-05-10T13:44:07.041Z,26.45
2023-05-10T13:45:12.151Z,26.37
2023-05-10T13:46:15.637Z,26.58
2023-05-10T13:47:20.216Z,26.74
2023-05-10T13:48:22.623Z,26.75
2023-05-10T13:49:24.978Z,26.85
2023-05-10T13:50:27.410Z,26.99
2023-05-10T13:51:30.394Z,26.93
2023-05-10T13:52:39.283Z,26.93
2023-05-10T13:53:44.736Z,26.89
2023-05-10T13:56:27.226Z,26.83
2023-05-10T13:57:29.864Z,26.64
2023-05-10T13:58:31.997Z,26.46
2023-05-10T13:59:37.138Z,26.22
2023-05-10T14:00:42.571Z,26.00
2023-05-10T14:01:44.942Z,25.84
2023-05-10T14:02:48.382Z,26.25
2023-05-10T14:03:51.251Z,26.33
2023-05-10T14:04:54.793Z,26.36
2023-05-10T14:05:57.334Z,26.46
2023-05-10T14:07:01.030Z,26.38
2023-05-10T14:08:05.288Z,26.42
2023-05-10T14:09:07.654Z,25.95
2023-05-10T14:10:11.967Z,25.75
2023-05-10T14:11:15.281Z,25.96
2023-05-10T14:12:17.627Z,26.05
2023-05-10T14:13:19.778Z,26.13
2023-05-10T14:14:25.171Z,26.08
2023-05-10T14:15:34.873Z,25.85
2023-05-10T14:16:37.346Z,25.83
2023-05-10T14:17:39.814Z,25.93